Time;durP1;ratioP1;P1;durP2;ratioP2;P2;SDS_P1;SDS_P2;PMS_P1;PMS_P2;Temp;Humidity;BMP_temperature;BMP_pressure;BME280_temperature;BME280_humidity;BME280_pressure;Samples;Min_cycle;Max_cycle;Signal;HPM_P1;HPM_P2
2022/09/26 00:04:30;;;;;;;10.43;7.07;;;;;;;;;;12854332;23;20131;-80
2022/09/26 00:09:30;;;;;;;8.55;6.38;;;;;;;;;;12838970;23;20100;-81
2022/09/26 00:14:31;;;;;;;8.82;6.85;;;;;;;;;;12814721;23;20013;-82
2022/09/26 00:19:33;;;;;;;9.60;6.85;;;;;;;;;;12866106;23;20011;-86
2022/09/26 00:24:43;;;;;;;12.45;7.40;;;;;;;;;;12885801;22;20009;-89
2022/09/26 00:29:47;;;;;;;12.82;8.13;;;;;;;;;;12846202;23;20302;-80
2022/09/26 00:34:47;;;;;;;10.23;7.53;;;;;;;;;;12868132;23;20009;-81
2022/09/26 00:39:50;;;;;;;11.75;7.47;;;;;;;;;;12821941;23;20503;-83
2022/09/26 00:44:58;;;;;;;9.93;7.47;;;;;;;;;;12853351;23;20055;-83
2022/09/26 00:50:01;;;;;;;9.75;7.25;;;;;;;;;;12851601;23;20024;-82
2022/09/26 00:55:03;;;;;;;11.25;8.15;;;;;;;;;;12853095;23;20139;-83
2022/09/26 01:00:06;;;;;;;9.63;7.38;;;;;;;;;;12847433;23;20020;-84
2022/09/26 01:05:07;;;;;;;12.55;8.75;;;;;;;;;;12869126;23;20020;-81
2022/09/26 01:10:07;;;;;;;11.45;8.45;;;;;;;;;;12861699;23;20023;-81
2022/09/26 01:15:08;;;;;;;15.40;9.88;;;;;;;;;;12867272;23;20451;-83
2022/09/26 01:20:27;;;;;;;11.25;8.32;;;;;;;;;;12819208;23;20008;-83
2022/09/26 01:25:30;;;;;;;13.18;8.73;;;;;;;;;;12872314;23;20032;-81
2022/09/26 01:30:40;;;;;;;14.75;8.95;;;;;;;;;;12843325;23;20025;-81
2022/09/26 01:35:46;;;;;;;14.30;9.90;;;;;;;;;;12808668;23;20080;-83
2022/09/26 01:41:05;;;;;;;12.32;8.85;;;;;;;;;;12854900;23;20008;-85
2022/09/26 01:46:27;;;;;;;14.52;10.13;;;;;;;;;;12882874;23;20009;-85
2022/09/26 01:51:33;;;;;;;14.70;9.52;;;;;;;;;;12873209;23;20107;-85
2022/09/26 01:56:37;;;;;;;12.98;8.52;;;;;;;;;;12846225;23;20024;-84
2022/09/26 02:01:42;;;;;;;13.40;9.27;;;;;;;;;;12845007;23;20012;-85
2022/09/26 02:06:55;;;;;;;15.32;8.80;;;;;;;;;;12861742;22;20391;-88
2022/09/26 02:11:58;;;;;;;14.15;8.68;;;;;;;;;;12888071;23;20030;-82
2022/09/26 02:17:10;;;;;;;15.88;9.23;;;;;;;;;;12882831;23;20409;-84
2022/09/26 02:22:10;;;;;;;14.48;8.70;;;;;;;;;;12820512;23;20017;-84
2022/09/26 02:27:12;;;;;;;12.23;9.30;;;;;;;;;;12847257;23;20032;-85
2022/09/26 02:32:16;;;;;;;12.80;9.15;;;;;;;;;;12845821;23;20019;-85
2022/09/26 02:37:20;;;;;;;12.38;9.07;;;;;;;;;;12842659;23;20016;-83
2022/09/26 02:42:27;;;;;;;12.45;8.65;;;;;;;;;;12832963;23;20024;-80
2022/09/26 02:47:46;;;;;;;14.65;9.00;;;;;;;;;;12852957;23;20504;-79
2022/09/26 02:52:52;;;;;;;14.10;9.15;;;;;;;;;;12825680;23;20483;-80
2022/09/26 02:58:14;;;;;;;14.52;9.05;;;;;;;;;;12826690;23;20020;-79
2022/09/26 03:03:21;;;;;;;12.98;8.68;;;;;;;;;;12800497;23;20040;-79
2022/09/26 03:08:24;;;;;;;13.57;8.30;;;;;;;;;;12799702;23;20021;-79
2022/09/26 03:13:25;;;;;;;12.13;9.00;;;;;;;;;;12851534;23;20028;-80
2022/09/26 03:18:28;;;;;;;10.90;8.35;;;;;;;;;;12826091;23;20021;-79
2022/09/26 03:23:29;;;;;;;14.65;8.90;;;;;;;;;;12852296;23;20023;-80
2022/09/26 03:28:34;;;;;;;14.25;8.82;;;;;;;;;;12825005;23;20040;-80
2022/09/26 03:33:35;;;;;;;16.55;9.25;;;;;;;;;;12852455;23;20024;-84
2022/09/26 03:38:37;;;;;;;13.10;9.10;;;;;;;;;;12858735;23;20005;-85
2022/09/26 03:43:50;;;;;;;14.23;9.20;;;;;;;;;;12862894;22;20020;-88
2022/09/26 03:48:53;;;;;;;13.95;9.20;;;;;;;;;;12885896;23;20023;-86
2022/09/26 03:53:57;;;;;;;15.52;9.45;;;;;;;;;;12974990;22;20030;-86
2022/09/26 03:59:00;;;;;;;14.90;9.85;;;;;;;;;;13002894;22;20015;-83
2022/09/26 04:04:06;;;;;;;15.02;8.90;;;;;;;;;;12996191;22;20079;-84
2022/09/26 04:09:11;;;;;;;15.63;9.55;;;;;;;;;;12997491;22;20059;-84
2022/09/26 04:14:16;;;;;;;13.50;8.48;;;;;;;;;;12989301;22;20019;-80
2022/09/26 04:19:27;;;;;;;15.93;9.30;;;;;;;;;;12970776;22;20023;-80
2022/09/26 04:24:31;;;;;;;14.57;9.30;;;;;;;;;;12961642;22;20022;-77
2022/09/26 04:29:32;;;;;;;16.17;10.02;;;;;;;;;;12987248;22;20042;-79
2022/09/26 04:34:50;;;;;;;15.20;9.45;;;;;;;;;;12973567;22;20123;-80
2022/09/26 04:39:50;;;;;;;12.68;8.80;;;;;;;;;;12966199;22;20015;-80
2022/09/26 04:44:51;;;;;;;15.48;9.27;;;;;;;;;;12966141;22;20035;-77
2022/09/26 04:49:51;;;;;;;13.87;9.33;;;;;;;;;;12959750;22;20020;-80
2022/09/26 04:54:52;;;;;;;15.27;9.40;;;;;;;;;;12934904;22;20266;-81
2022/09/26 04:59:52;;;;;;;12.35;9.05;;;;;;;;;;12984798;22;20326;-79
2022/09/26 05:04:54;;;;;;;18.50;10.23;;;;;;;;;;12951346;22;20003;-82
2022/09/26 05:09:55;;;;;;;13.18;9.43;;;;;;;;;;13009319;22;20062;-78
2022/09/26 05:14:57;;;;;;;9.95;8.07;;;;;;;;;;13009335;22;20012;-81
2022/09/26 05:20:00;;;;;;;16.23;9.93;;;;;;;;;;13000134;22;20088;-81
2022/09/26 05:30:33;;;;;;;14.63;9.32;;;;;;;;;;12978041;22;20147;-79
2022/09/26 05:35:34;;;;;;;14.23;9.13;;;;;;;;;;12940671;22;20012;-81
2022/09/26 05:45:57;;;;;;;14.65;9.93;;;;;;;;;;12970573;22;20039;-82
2022/09/26 05:51:03;;;;;;;13.27;8.77;;;;;;;;;;12964266;22;20459;-79
2022/09/26 05:56:05;;;;;;;12.85;9.23;;;;;;;;;;12950393;22;20027;-79
2022/09/26 06:01:31;;;;;;;12.43;8.40;;;;;;;;;;12928672;22;20012;-78
2022/09/26 06:06:41;;;;;;;14.70;9.35;;;;;;;;;;12949989;22;20482;-79
2022/09/26 06:11:45;;;;;;;13.52;9.13;;;;;;;;;;12950479;22;20030;-78
2022/09/26 06:16:46;;;;;;;12.18;8.55;;;;;;;;;;12980875;22;20019;-79
2022/09/26 06:21:49;;;;;;;12.45;9.13;;;;;;;;;;12950960;22;20042;-79
2022/09/26 06:26:50;;;;;;;12.80;9.18;;;;;;;;;;12951808;22;20011;-79
2022/09/26 06:31:50;;;;;;;14.23;9.02;;;;;;;;;;12927602;22;20447;-78
2022/09/26 06:37:09;;;;;;;14.88;8.73;;;;;;;;;;12957302;22;20019;-79
2022/09/26 06:42:11;;;;;;;13.50;9.13;;;;;;;;;;12956650;22;20019;-80
2022/09/26 06:47:23;;;;;;;14.00;9.10;;;;;;;;;;12956969;22;20004;-78
2022/09/26 06:52:34;;;;;;;13.73;9.27;;;;;;;;;;12971006;22;20023;-77
2022/09/26 06:57:38;;;;;;;13.50;10.10;;;;;;;;;;12985017;22;20355;-79
2022/09/26 07:02:47;;;;;;;15.82;9.90;;;;;;;;;;12957212;22;20019;-79
2022/09/26 07:07:54;;;;;;;15.73;10.57;;;;;;;;;;12955699;22;20071;-78
2022/09/26 07:13:02;;;;;;;18.05;12.57;;;;;;;;;;12955181;22;20025;-79
2022/09/26 07:18:03;;;;;;;18.05;13.00;;;;;;;;;;12952440;22;20070;-79
2022/09/26 07:23:23;;;;;;;20.52;12.75;;;;;;;;;;12956043;22;20015;-80
2022/09/26 07:28:24;;;;;;;21.60;12.75;;;;;;;;;;12929861;22;20023;-79
2022/09/26 07:33:26;;;;;;;21.27;13.43;;;;;;;;;;12930125;22;20026;-78
2022/09/26 07:38:28;;;;;;;21.92;13.57;;;;;;;;;;12981938;22;20008;-79
2022/09/26 07:43:29;;;;;;;22.35;14.88;;;;;;;;;;12958717;22;20018;-80
2022/09/26 07:54:16;;;;;;;17.13;13.23;;;;;;;;;;12979913;22;20109;-79
2022/09/26 07:59:50;;;;;;;19.23;13.20;;;;;;;;;;12963325;22;20019;-79
2022/09/26 08:05:23;;;;;;;17.50;12.50;;;;;;;;;;12996792;22;20284;-79
2022/09/26 08:10:25;;;;;;;17.05;12.27;;;;;;;;;;12971359;22;20024;-80
2022/09/26 08:15:44;;;;;;;15.82;12.30;;;;;;;;;;13001253;22;20024;-78
2022/09/26 08:20:52;;;;;;;17.92;13.65;;;;;;;;;;12954227;22;20019;-79
2022/09/26 08:25:54;;;;;;;16.05;12.85;;;;;;;;;;12964793;22;20382;-79
2022/09/26 08:31:05;;;;;;;20.23;13.02;;;;;;;;;;12983601;22;20026;-78
2022/09/26 08:36:08;;;;;;;24.95;14.52;;;;;;;;;;12940075;22;20016;-80
2022/09/26 08:41:32;;;;;;;24.52;14.02;;;;;;;;;;12988073;22;20050;-79
2022/09/26 08:47:01;;;;;;;15.45;11.93;;;;;;;;;;12983437;22;20019;-79
2022/09/26 08:52:27;;;;;;;14.75;11.15;;;;;;;;;;12945349;22;20049;-78
2022/09/26 08:57:31;;;;;;;12.23;10.18;;;;;;;;;;12934918;22;20012;-78
2022/09/26 09:02:36;;;;;;;13.65;9.25;;;;;;;;;;12956657;22;20019;-79
2022/09/26 09:07:40;;;;;;;16.77;10.77;;;;;;;;;;12959515;22;20019;-78
2022/09/26 09:12:43;;;;;;;13.73;9.27;;;;;;;;;;12931665;22;20085;-77
2022/09/26 09:18:42;;;;;;;12.15;9.20;;;;;;;;;;12958639;22;20008;-78
2022/09/26 09:24:15;;;;;;;12.52;8.57;;;;;;;;;;12876957;22;20076;-78
2022/09/26 09:29:31;;;;;;;7.95;7.25;;;;;;;;;;12972102;22;20024;-79
2022/09/26 09:35:00;;;;;;;9.52;7.75;;;;;;;;;;12948430;22;20090;-78
2022/09/26 09:40:30;;;;;;;7.57;6.25;;;;;;;;;;12989517;22;20011;-80
2022/09/26 09:45:35;;;;;;;13.52;8.70;;;;;;;;;;12932350;22;20078;-77
2022/09/26 09:50:38;;;;;;;11.30;7.93;;;;;;;;;;12958057;22;20023;-78
2022/09/26 09:55:59;;;;;;;11.77;8.50;;;;;;;;;;12963175;22;20039;-77
2022/09/26 10:01:19;;;;;;;11.02;7.80;;;;;;;;;;12980880;22;20019;-79
2022/09/26 10:06:21;;;;;;;10.38;6.78;;;;;;;;;;12952377;22;20039;-78
2022/09/26 10:11:25;;;;;;;8.30;6.00;;;;;;;;;;12951229;22;20097;-77
2022/09/26 10:17:10;;;;;;;5.40;4.88;;;;;;;;;;12922970;22;20740;-80
2022/09/26 10:22:44;;;;;;;7.25;4.90;;;;;;;;;;12944905;22;20119;-78
2022/09/26 10:27:55;;;;;;;5.78;4.07;;;;;;;;;;12953101;22;20015;-78
2022/09/26 10:32:57;;;;;;;6.70;3.67;;;;;;;;;;12950986;22;20094;-78
2022/09/26 10:38:20;;;;;;;18.58;11.88;;;;;;;;;;12985108;22;20023;-83
2022/09/26 10:43:31;;;;;;;9.75;3.78;;;;;;;;;;12947213;22;20016;-81
2022/09/26 10:48:56;;;;;;;3.60;3.05;;;;;;;;;;12948003;22;20012;-87
2022/09/26 10:54:40;;;;;;;3.08;2.78;;;;;;;;;;12983194;22;20023;-83
2022/09/26 10:59:40;;;;;;;4.32;2.90;;;;;;;;;;13009599;22;20126;-82
2022/09/26 11:10:24;;;;;;;4.00;2.05;;;;;;;;;;13032423;22;20027;-81
2022/09/26 11:15:32;;;;;;;5.15;2.70;;;;;;;;;;12974292;22;20014;-81
2022/09/26 11:20:50;;;;;;;7.53;5.35;;;;;;;;;;12973612;22;20030;-80
2022/09/26 11:26:02;;;;;;;5.13;3.58;;;;;;;;;;12968379;22;20019;-82
2022/09/26 11:31:07;;;;;;;4.43;3.80;;;;;;;;;;12976091;22;20070;-82
2022/09/26 11:36:15;;;;;;;5.05;3.22;;;;;;;;;;12980072;22;20008;-85
2022/09/26 11:41:37;;;;;;;3.97;2.72;;;;;;;;;;13021504;22;20060;-82
2022/09/26 11:46:54;;;;;;;3.43;3.00;;;;;;;;;;12975201;22;20330;-82
2022/09/26 11:52:25;;;;;;;3.95;2.95;;;;;;;;;;13009034;22;20030;-81
2022/09/26 11:57:48;;;;;;;4.55;3.60;;;;;;;;;;13021322;22;20036;-81
2022/09/26 12:02:59;;;;;;;3.70;2.77;;;;;;;;;;13000487;22;20014;-82
2022/09/26 12:08:19;;;;;;;5.18;3.85;;;;;;;;;;12993238;22;20004;-79
2022/09/26 12:13:33;;;;;;;3.65;2.58;;;;;;;;;;12961463;22;20454;-81
2022/09/26 12:18:39;;;;;;;3.72;2.92;;;;;;;;;;12991011;22;20019;-81
2022/09/26 12:23:47;;;;;;;4.28;2.78;;;;;;;;;;12965646;22;20067;-82
2022/09/26 12:29:06;;;;;;;5.35;2.75;;;;;;;;;;12998418;22;20023;-81
2022/09/26 12:34:29;;;;;;;4.50;3.03;;;;;;;;;;12997926;22;20478;-81
2022/09/26 12:39:30;;;;;;;3.58;2.72;;;;;;;;;;12966913;22;20027;-81
2022/09/26 12:44:30;;;;;;;3.13;2.50;;;;;;;;;;12973850;22;20015;-82
2022/09/26 12:49:43;;;;;;;3.55;2.95;;;;;;;;;;13024146;22;20050;-82
2022/09/26 12:55:03;;;;;;;3.78;2.90;;;;;;;;;;12982333;22;20018;-83
2022/09/26 13:00:09;;;;;;;2.60;2.40;;;;;;;;;;13008365;22;20012;-84
2022/09/26 13:05:13;;;;;;;5.57;2.55;;;;;;;;;;12975276;22;20026;-82
2022/09/26 13:10:27;;;;;;;4.22;2.75;;;;;;;;;;12998629;22;20018;-84
2022/09/26 13:15:34;;;;;;;4.25;2.70;;;;;;;;;;12995001;22;20032;-83
2022/09/26 13:20:40;;;;;;;5.72;2.80;;;;;;;;;;12999474;22;20034;-83
2022/09/26 13:25:43;;;;;;;3.40;2.60;;;;;;;;;;13003482;22;20039;-83
2022/09/26 13:30:47;;;;;;;2.83;1.95;;;;;;;;;;12994356;22;20007;-86
2022/09/26 13:35:50;;;;;;;2.60;2.00;;;;;;;;;;12998380;22;20012;-84
2022/09/26 13:40:50;;;;;;;2.83;1.90;;;;;;;;;;12972013;22;20016;-85
2022/09/26 13:45:58;;;;;;;4.30;2.23;;;;;;;;;;13000630;22;20114;-85
2022/09/26 13:51:18;;;;;;;4.63;2.90;;;;;;;;;;13005897;22;20278;-83
2022/09/26 13:56:29;;;;;;;4.93;3.13;;;;;;;;;;12981282;22;20030;-84
2022/09/26 14:01:29;;;;;;;3.63;1.90;;;;;;;;;;13014518;22;20012;-87
2022/09/26 14:06:31;;;;;;;2.67;1.70;;;;;;;;;;13010582;22;20027;-83
2022/09/26 14:11:50;;;;;;;3.85;2.03;;;;;;;;;;13076138;22;20059;-84
2022/09/26 14:16:54;;;;;;;3.83;1.92;;;;;;;;;;13102867;22;20019;-84
2022/09/26 14:22:01;;;;;;;4.65;2.05;;;;;;;;;;13079070;22;20023;-84
2022/09/26 14:27:02;;;;;;;4.22;1.90;;;;;;;;;;13089875;22;20003;-83
2022/09/26 14:32:22;;;;;;;3.10;1.42;;;;;;;;;;13043676;22;20032;-85
2022/09/26 14:37:23;;;;;;;2.35;1.40;;;;;;;;;;13058362;22;20018;-85
2022/09/26 14:42:38;;;;;;;1.98;1.10;;;;;;;;;;13052070;22;20018;-85
2022/09/26 14:47:42;;;;;;;2.42;0.93;;;;;;;;;;13083126;22;20069;-86
2022/09/26 14:52:54;;;;;;;1.15;0.82;;;;;;;;;;13095029;22;20019;-85
2022/09/26 14:58:21;;;;;;;0.90;0.90;;;;;;;;;;13095610;22;20011;-83
2022/09/26 15:03:23;;;;;;;1.13;0.88;;;;;;;;;;13012352;22;20004;-83
2022/09/26 15:08:27;;;;;;;1.45;1.00;;;;;;;;;;13023987;22;20012;-83
2022/09/26 15:13:31;;;;;;;2.03;1.08;;;;;;;;;;13019048;22;20019;-89
2022/09/26 15:18:39;;;;;;;1.20;1.10;;;;;;;;;;13029521;22;20012;-84
2022/09/26 15:23:48;;;;;;;1.73;1.00;;;;;;;;;;13029129;22;20034;-84
2022/09/26 15:28:49;;;;;;;2.50;1.20;;;;;;;;;;12994900;22;20015;-82
2022/09/26 15:33:51;;;;;;;2.10;0.80;;;;;;;;;;13034520;22;20023;-85
2022/09/26 15:38:51;;;;;;;2.33;0.90;;;;;;;;;;13035262;22;20054;-83
2022/09/26 15:43:59;;;;;;;1.70;1.00;;;;;;;;;;13002715;22;20037;-85
2022/09/26 15:49:00;;;;;;;1.55;1.25;;;;;;;;;;12991738;22;20020;-87
2022/09/26 15:54:05;;;;;;;1.30;1.00;;;;;;;;;;13029247;22;20023;-86
2022/09/26 15:59:08;;;;;;;1.70;1.20;;;;;;;;;;13020659;22;20008;-84
2022/09/26 16:04:26;;;;;;;2.65;1.25;;;;;;;;;;13025407;22;20023;-88
2022/09/26 16:09:31;;;;;;;1.95;1.60;;;;;;;;;;13018463;22;20004;-81
2022/09/26 16:14:40;;;;;;;4.50;1.83;;;;;;;;;;13009832;22;20125;-84
2022/09/26 16:19:49;;;;;;;2.63;1.40;;;;;;;;;;12987322;22;20051;-80
2022/09/26 16:24:50;;;;;;;1.77;1.45;;;;;;;;;;12986862;22;20304;-80
2022/09/26 16:29:51;;;;;;;3.40;1.70;;;;;;;;;;12987929;22;20023;-78
2022/09/26 16:34:52;;;;;;;2.10;1.38;;;;;;;;;;12998703;22;20383;-80
2022/09/26 16:39:58;;;;;;;1.45;1.27;;;;;;;;;;12998548;22;20014;-79
2022/09/26 16:45:02;;;;;;;2.30;1.40;;;;;;;;;;12991037;22;20063;-81
2022/09/26 16:50:21;;;;;;;2.13;1.27;;;;;;;;;;13024325;22;20016;-79
2022/09/26 16:55:22;;;;;;;1.75;1.40;;;;;;;;;;13011376;22;20012;-79
2022/09/26 17:05:42;;;;;;;2.80;1.40;;;;;;;;;;12986076;22;20416;-81
2022/09/26 17:10:44;;;;;;;3.30;1.67;;;;;;;;;;12980772;22;20109;-79
2022/09/26 17:15:46;;;;;;;3.78;2.15;;;;;;;;;;12977634;22;20008;-78
2022/09/26 17:20:47;;;;;;;3.17;2.10;;;;;;;;;;12962335;22;20015;-77
2022/09/26 17:25:48;;;;;;;3.22;2.30;;;;;;;;;;12979435;22;20019;-81
2022/09/26 17:30:50;;;;;;;2.72;2.40;;;;;;;;;;12984121;22;20119;-81
2022/09/26 17:35:51;;;;;;;4.07;2.88;;;;;;;;;;12991655;22;20023;-82
2022/09/26 17:40:52;;;;;;;3.35;2.20;;;;;;;;;;13027476;22;20019;-77
2022/09/26 17:45:53;;;;;;;4.38;2.97;;;;;;;;;;13029380;22;19995;-79
2022/09/26 17:50:54;;;;;;;4.38;3.00;;;;;;;;;;12994642;22;20024;-78
2022/09/26 17:55:55;;;;;;;3.30;2.70;;;;;;;;;;12979662;22;20019;-79
2022/09/26 18:00:55;;;;;;;3.17;2.35;;;;;;;;;;12979739;22;20072;-76
2022/09/26 18:05:56;;;;;;;4.47;2.65;;;;;;;;;;12981114;22;20082;-80
2022/09/26 18:11:03;;;;;;;3.58;2.58;;;;;;;;;;12982880;22;20454;-82
2022/09/26 18:16:04;;;;;;;4.65;2.78;;;;;;;;;;12983042;22;20031;-83
2022/09/26 18:21:08;;;;;;;3.35;2.28;;;;;;;;;;12993583;22;20039;-82
2022/09/26 18:26:12;;;;;;;4.43;2.92;;;;;;;;;;12985432;22;20012;-83
2022/09/26 18:31:13;;;;;;;4.15;2.85;;;;;;;;;;12986444;22;20019;-80
2022/09/26 18:36:14;;;;;;;3.47;3.05;;;;;;;;;;12984328;22;20442;-81
2022/09/26 18:41:17;;;;;;;4.25;3.03;;;;;;;;;;12991527;22;20003;-83
2022/09/26 18:46:17;;;;;;;4.28;3.72;;;;;;;;;;12982184;22;20015;-79
2022/09/26 18:51:19;;;;;;;4.40;3.90;;;;;;;;;;12994405;22;20040;-83
2022/09/26 19:01:41;;;;;;;6.15;4.75;;;;;;;;;;13012624;22;19999;-83
2022/09/26 19:06:43;;;;;;;5.95;4.53;;;;;;;;;;13006103;22;20012;-84
2022/09/26 19:11:47;;;;;;;5.82;4.28;;;;;;;;;;12993217;22;20669;-82
2022/09/26 19:16:48;;;;;;;4.85;4.30;;;;;;;;;;12984168;22;20088;-81
2022/09/26 19:21:50;;;;;;;5.03;4.55;;;;;;;;;;13018241;22;20375;-83
2022/09/26 19:27:06;;;;;;;6.87;4.33;;;;;;;;;;13010944;22;20473;-83
2022/09/26 19:32:15;;;;;;;4.60;3.83;;;;;;;;;;13016130;22;20028;-84
2022/09/26 19:37:18;;;;;;;4.00;2.78;;;;;;;;;;12999296;22;20339;-84
2022/09/26 19:42:19;;;;;;;2.63;2.33;;;;;;;;;;13001125;22;20018;-84
2022/09/26 19:47:21;;;;;;;4.68;2.67;;;;;;;;;;12995110;22;20024;-84
2022/09/26 19:52:21;;;;;;;2.13;1.92;;;;;;;;;;12990747;22;20019;-85
2022/09/26 19:57:22;;;;;;;2.60;1.90;;;;;;;;;;12993392;22;20037;-86
2022/09/26 20:02:29;;;;;;;3.90;2.08;;;;;;;;;;12998883;22;20039;-86
2022/09/26 20:07:30;;;;;;;2.92;2.25;;;;;;;;;;12999489;22;20015;-84
2022/09/26 20:12:32;;;;;;;4.15;2.03;;;;;;;;;;12998113;22;20216;-84
2022/09/26 20:17:36;;;;;;;2.30;1.80;;;;;;;;;;12997427;22;20073;-82
2022/09/26 20:22:36;;;;;;;3.72;1.88;;;;;;;;;;12988327;22;20016;-82
2022/09/26 20:27:37;;;;;;;1.88;1.40;;;;;;;;;;12994502;22;20063;-82
2022/09/26 20:32:39;;;;;;;2.85;1.80;;;;;;;;;;13007169;22;20020;-83
2022/09/26 20:37:40;;;;;;;2.13;1.43;;;;;;;;;;13038470;22;20026;-82
2022/09/26 20:42:43;;;;;;;3.28;1.73;;;;;;;;;;13039346;22;20027;-83
2022/09/26 20:47:45;;;;;;;1.75;1.50;;;;;;;;;;13026118;22;20011;-83
2022/09/26 20:52:46;;;;;;;2.55;1.65;;;;;;;;;;12992048;22;20034;-81
2022/09/26 20:57:47;;;;;;;2.30;1.55;;;;;;;;;;13012048;22;20011;-82
2022/09/26 21:02:52;;;;;;;2.80;1.60;;;;;;;;;;12996804;22;20020;-82
2022/09/26 21:07:54;;;;;;;1.60;1.40;;;;;;;;;;13006191;22;20019;-82
2022/09/26 21:12:55;;;;;;;2.55;1.60;;;;;;;;;;12997716;22;20102;-81
2022/09/26 21:17:56;;;;;;;2.13;1.52;;;;;;;;;;13000885;22;20012;-83
2022/09/26 21:22:58;;;;;;;3.08;2.17;;;;;;;;;;13002615;22;20014;-81
2022/09/26 21:28:01;;;;;;;1.83;1.73;;;;;;;;;;12996416;22;20016;-85
2022/09/26 21:33:01;;;;;;;2.22;1.83;;;;;;;;;;13004671;22;20054;-85
2022/09/26 21:38:01;;;;;;;2.47;1.88;;;;;;;;;;13000724;22;20015;-85
2022/09/26 21:43:06;;;;;;;2.85;1.70;;;;;;;;;;12998776;22;20008;-82
2022/09/26 21:48:06;;;;;;;2.92;1.80;;;;;;;;;;12990043;22;20014;-85
2022/09/26 21:53:09;;;;;;;2.63;1.92;;;;;;;;;;12997008;22;20020;-84
2022/09/26 21:58:13;;;;;;;1.80;1.70;;;;;;;;;;13004851;22;20046;-82
2022/09/26 22:03:14;;;;;;;2.05;1.42;;;;;;;;;;12994268;22;20018;-84
2022/09/26 22:08:15;;;;;;;3.35;1.70;;;;;;;;;;12987557;22;20007;-81
2022/09/26 22:13:15;;;;;;;2.60;1.90;;;;;;;;;;12982051;22;20030;-82
2022/09/26 22:18:15;;;;;;;3.25;1.70;;;;;;;;;;12988367;22;20007;-81
2022/09/26 22:23:16;;;;;;;2.97;1.80;;;;;;;;;;12993172;22;20011;-81
2022/09/26 22:28:16;;;;;;;3.33;1.65;;;;;;;;;;12997021;22;20250;-79
2022/09/26 22:33:21;;;;;;;2.72;1.80;;;;;;;;;;13029974;22;20073;-84
2022/09/26 22:38:22;;;;;;;2.10;1.77;;;;;;;;;;13002939;22;20019;-84
2022/09/26 22:43:23;;;;;;;4.22;2.45;;;;;;;;;;12986762;22;20004;-83
2022/09/26 22:48:24;;;;;;;2.08;1.63;;;;;;;;;;12985227;22;20007;-84
2022/09/26 22:53:24;;;;;;;2.42;1.73;;;;;;;;;;12987825;22;20016;-81
2022/09/26 22:58:25;;;;;;;3.60;1.80;;;;;;;;;;13010649;22;20018;-80
2022/09/26 23:03:26;;;;;;;3.00;1.70;;;;;;;;;;13000222;22;20008;-84
2022/09/26 23:08:27;;;;;;;2.53;1.73;;;;;;;;;;12986867;22;20004;-83
2022/09/26 23:13:28;;;;;;;2.28;2.00;;;;;;;;;;12987398;22;20027;-83
2022/09/26 23:18:33;;;;;;;2.13;1.58;;;;;;;;;;12983599;22;20335;-83
2022/09/26 23:23:35;;;;;;;2.85;1.90;;;;;;;;;;12985043;22;20030;-82
2022/09/26 23:28:35;;;;;;;2.47;1.70;;;;;;;;;;12983334;22;20018;-82
2022/09/26 23:33:36;;;;;;;3.42;1.85;;;;;;;;;;12988169;22;20042;-82
2022/09/26 23:38:37;;;;;;;1.80;1.50;;;;;;;;;;12991269;22;20011;-81
2022/09/26 23:43:38;;;;;;;2.70;1.52;;;;;;;;;;12999815;22;20015;-83
2022/09/26 23:48:41;;;;;;;2.05;1.52;;;;;;;;;;12994577;22;20061;-84
2022/09/26 23:53:42;;;;;;;1.80;1.42;;;;;;;;;;13010398;22;20079;-84
2022/09/26 23:58:43;;;;;;;3.42;1.73;;;;;;;;;;13023144;22;20027;-84
